sensor_id;sensor_type;location;lat;lon;timestamp;P1;durP1;ratioP1;P2;durP2;ratioP2
4430;SDS011;2228;48.140;11.488;2023-03-22T00:02:14;7.70;;;6.20;;
4430;SDS011;2228;48.140;11.488;2023-03-22T00:04:42;9.88;;;7.00;;
4430;SDS011;2228;48.140;11.488;2023-03-22T00:07:09;7.43;;;6.03;;
4430;SDS011;2228;48.140;11.488;2023-03-22T00:09:36;10.18;;;7.35;;
4430;SDS011;2228;48.140;11.488;2023-03-22T00:12:03;9.27;;;6.78;;
4430;SDS011;2228;48.140;11.488;2023-03-22T00:14:30;11.63;;;7.10;;
4430;SDS011;2228;48.140;11.488;2023-03-22T00:16:57;10.25;;;7.35;;
4430;SDS011;2228;48.140;11.488;2023-03-22T00:19:24;10.60;;;7.50;;
4430;SDS011;2228;48.140;11.488;2023-03-22T00:21:54;9.73;;;7.40;;
4430;SDS011;2228;48.140;11.488;2023-03-22T00:24:21;11.30;;;8.27;;
4430;SDS011;2228;48.140;11.488;2023-03-22T00:26:48;10.40;;;7.10;;
4430;SDS011;2228;48.140;11.488;2023-03-22T00:29:15;12.85;;;7.97;;
4430;SDS011;2228;48.140;11.488;2023-03-22T00:31:42;12.95;;;7.65;;
4430;SDS011;2228;48.140;11.488;2023-03-22T00:34:09;8.07;;;6.15;;
4430;SDS011;2228;48.140;11.488;2023-03-22T00:36:36;10.15;;;7.03;;
4430;SDS011;2228;48.140;11.488;2023-03-22T00:39:04;10.13;;;6.47;;
4430;SDS011;2228;48.140;11.488;2023-03-22T00:41:31;8.50;;;6.05;;
4430;SDS011;2228;48.140;11.488;2023-03-22T00:43:58;9.02;;;6.95;;
4430;SDS011;2228;48.140;11.488;2023-03-22T00:46:25;9.65;;;5.78;;
4430;SDS011;2228;48.140;11.488;2023-03-22T00:48:52;8.00;;;5.60;;
4430;SDS011;2228;48.140;11.488;2023-03-22T00:51:19;9.45;;;6.20;;
4430;SDS011;2228;48.140;11.488;2023-03-22T00:53:46;9.35;;;6.00;;
4430;SDS011;2228;48.140;11.488;2023-03-22T00:56:16;8.27;;;6.10;;
4430;SDS011;2228;48.140;11.488;2023-03-22T00:58:43;9.05;;;5.78;;
4430;SDS011;2228;48.140;11.488;2023-03-22T01:01:10;6.65;;;5.65;;
4430;SDS011;2228;48.140;11.488;2023-03-22T01:03:38;7.78;;;5.60;;
4430;SDS011;2228;48.140;11.488;2023-03-22T01:06:06;7.88;;;6.00;;
4430;SDS011;2228;48.140;11.488;2023-03-22T01:08:33;7.90;;;5.22;;
4430;SDS011;2228;48.140;11.488;2023-03-22T01:11:02;8.35;;;5.38;;
4430;SDS011;2228;48.140;11.488;2023-03-22T01:13:31;11.03;;;6.37;;
4430;SDS011;2228;48.140;11.488;2023-03-22T01:15:59;6.50;;;5.13;;
4430;SDS011;2228;48.140;11.488;2023-03-22T01:18:26;7.40;;;5.20;;
4430;SDS011;2228;48.140;11.488;2023-03-22T01:20:53;8.15;;;5.38;;
4430;SDS011;2228;48.140;11.488;2023-03-22T01:23:20;7.47;;;5.30;;
4430;SDS011;2228;48.140;11.488;2023-03-22T01:25:47;9.13;;;5.88;;
4430;SDS011;2228;48.140;11.488;2023-03-22T01:28:13;9.15;;;5.80;;
4430;SDS011;2228;48.140;11.488;2023-03-22T01:30:42;7.03;;;5.60;;
4430;SDS011;2228;48.140;11.488;2023-03-22T01:33:08;7.43;;;5.53;;
4430;SDS011;2228;48.140;11.488;2023-03-22T01:35:36;6.88;;;5.80;;
4430;SDS011;2228;48.140;11.488;2023-03-22T01:38:03;8.20;;;5.43;;
4430;SDS011;2228;48.140;11.488;2023-03-22T01:40:30;7.50;;;5.20;;
4430;SDS011;2228;48.140;11.488;2023-03-22T01:42:58;8.75;;;5.53;;
4430;SDS011;2228;48.140;11.488;2023-03-22T01:45:31;7.13;;;5.13;;
4430;SDS011;2228;48.140;11.488;2023-03-22T01:48:03;8.00;;;5.50;;
4430;SDS011;2228;48.140;11.488;2023-03-22T01:50:37;7.25;;;5.00;;
4430;SDS011;2228;48.140;11.488;2023-03-22T01:53:08;6.90;;;5.60;;
4430;SDS011;2228;48.140;11.488;2023-03-22T01:55:37;11.60;;;5.20;;
4430;SDS011;2228;48.140;11.488;2023-03-22T01:58:05;7.35;;;4.90;;
4430;SDS011;2228;48.140;11.488;2023-03-22T02:00:32;7.60;;;5.47;;
4430;SDS011;2228;48.140;11.488;2023-03-22T02:02:59;8.10;;;5.53;;
4430;SDS011;2228;48.140;11.488;2023-03-22T02:05:28;8.93;;;6.00;;
4430;SDS011;2228;48.140;11.488;2023-03-22T02:07:56;7.95;;;5.13;;
4430;SDS011;2228;48.140;11.488;2023-03-22T02:10:24;6.80;;;5.45;;
4430;SDS011;2228;48.140;11.488;2023-03-22T02:13:03;9.38;;;5.80;;
4430;SDS011;2228;48.140;11.488;2023-03-22T02:15:42;8.85;;;5.90;;
4430;SDS011;2228;48.140;11.488;2023-03-22T02:18:20;8.10;;;5.82;;
4430;SDS011;2228;48.140;11.488;2023-03-22T02:21:04;6.93;;;5.05;;
4430;SDS011;2228;48.140;11.488;2023-03-22T02:30:38;8.27;;;5.60;;
4430;SDS011;2228;48.140;11.488;2023-03-22T02:36:32;9.73;;;5.40;;
4430;SDS011;2228;48.140;11.488;2023-03-22T02:39:19;6.57;;;5.40;;
4430;SDS011;2228;48.140;11.488;2023-03-22T02:42:05;6.97;;;5.60;;
4430;SDS011;2228;48.140;11.488;2023-03-22T02:44:49;8.50;;;5.47;;
4430;SDS011;2228;48.140;11.488;2023-03-22T02:47:24;9.40;;;5.60;;
4430;SDS011;2228;48.140;11.488;2023-03-22T02:50:04;9.10;;;5.43;;
4430;SDS011;2228;48.140;11.488;2023-03-22T02:52:36;7.57;;;5.80;;
4430;SDS011;2228;48.140;11.488;2023-03-22T02:55:08;6.60;;;5.10;;
4430;SDS011;2228;48.140;11.488;2023-03-22T02:57:41;9.20;;;5.60;;
4430;SDS011;2228;48.140;11.488;2023-03-22T03:00:13;8.50;;;5.78;;
4430;SDS011;2228;48.140;11.488;2023-03-22T03:02:43;9.93;;;5.63;;
4430;SDS011;2228;48.140;11.488;2023-03-22T03:05:12;9.38;;;6.57;;
4430;SDS011;2228;48.140;11.488;2023-03-22T03:07:41;12.10;;;5.93;;
4430;SDS011;2228;48.140;11.488;2023-03-22T03:10:13;8.95;;;5.60;;
4430;SDS011;2228;48.140;11.488;2023-03-22T03:12:42;9.40;;;5.53;;
4430;SDS011;2228;48.140;11.488;2023-03-22T03:15:10;9.15;;;5.90;;
4430;SDS011;2228;48.140;11.488;2023-03-22T03:17:42;9.18;;;5.70;;
4430;SDS011;2228;48.140;11.488;2023-03-22T03:20:24;10.32;;;6.13;;
4430;SDS011;2228;48.140;11.488;2023-03-22T03:23:03;8.60;;;5.83;;
4430;SDS011;2228;48.140;11.488;2023-03-22T03:25:42;8.48;;;5.80;;
4430;SDS011;2228;48.140;11.488;2023-03-22T03:28:20;8.40;;;5.80;;
4430;SDS011;2228;48.140;11.488;2023-03-22T03:30:55;7.68;;;4.90;;
4430;SDS011;2228;48.140;11.488;2023-03-22T03:33:27;7.75;;;6.18;;
4430;SDS011;2228;48.140;11.488;2023-03-22T03:35:58;9.70;;;6.57;;
4430;SDS011;2228;48.140;11.488;2023-03-22T03:38:28;9.90;;;6.60;;
4430;SDS011;2228;48.140;11.488;2023-03-22T03:41:01;8.03;;;5.90;;
4430;SDS011;2228;48.140;11.488;2023-03-22T03:43:30;12.13;;;6.28;;
4430;SDS011;2228;48.140;11.488;2023-03-22T03:45:57;9.90;;;7.18;;
4430;SDS011;2228;48.140;11.488;2023-03-22T03:48:26;13.00;;;7.35;;
4430;SDS011;2228;48.140;11.488;2023-03-22T03:50:55;8.95;;;6.93;;
4430;SDS011;2228;48.140;11.488;2023-03-22T03:53:23;8.73;;;6.90;;
4430;SDS011;2228;48.140;11.488;2023-03-22T03:55:50;9.80;;;6.40;;
4430;SDS011;2228;48.140;11.488;2023-03-22T03:58:18;10.15;;;7.10;;
4430;SDS011;2228;48.140;11.488;2023-03-22T04:00:45;10.13;;;7.57;;
4430;SDS011;2228;48.140;11.488;2023-03-22T04:03:12;10.65;;;7.55;;
4430;SDS011;2228;48.140;11.488;2023-03-22T04:05:40;12.13;;;7.68;;
4430;SDS011;2228;48.140;11.488;2023-03-22T04:08:07;10.35;;;6.72;;
4430;SDS011;2228;48.140;11.488;2023-03-22T04:10:34;10.60;;;7.60;;
4430;SDS011;2228;48.140;11.488;2023-03-22T04:13:01;14.05;;;8.00;;
4430;SDS011;2228;48.140;11.488;2023-03-22T04:15:29;12.00;;;7.20;;
4430;SDS011;2228;48.140;11.488;2023-03-22T04:17:56;12.00;;;7.75;;
4430;SDS011;2228;48.140;11.488;2023-03-22T04:20:23;11.60;;;8.10;;
4430;SDS011;2228;48.140;11.488;2023-03-22T04:22:51;12.63;;;8.30;;
4430;SDS011;2228;48.140;11.488;2023-03-22T04:25:18;11.17;;;7.60;;
4430;SDS011;2228;48.140;11.488;2023-03-22T04:27:47;11.90;;;7.90;;
4430;SDS011;2228;48.140;11.488;2023-03-22T04:30:16;10.10;;;6.93;;
4430;SDS011;2228;48.140;11.488;2023-03-22T04:32:45;9.98;;;7.15;;
4430;SDS011;2228;48.140;11.488;2023-03-22T04:35:13;10.68;;;7.15;;
4430;SDS011;2228;48.140;11.488;2023-03-22T04:37:41;9.63;;;6.70;;
4430;SDS011;2228;48.140;11.488;2023-03-22T04:40:10;9.85;;;6.70;;
4430;SDS011;2228;48.140;11.488;2023-03-22T04:42:41;9.98;;;6.50;;
4430;SDS011;2228;48.140;11.488;2023-03-22T04:45:09;8.90;;;6.13;;
4430;SDS011;2228;48.140;11.488;2023-03-22T04:47:36;14.52;;;6.50;;
4430;SDS011;2228;48.140;11.488;2023-03-22T04:50:06;8.20;;;5.93;;
4430;SDS011;2228;48.140;11.488;2023-03-22T04:52:34;9.25;;;6.10;;
4430;SDS011;2228;48.140;11.488;2023-03-22T04:55:01;7.67;;;5.80;;
4430;SDS011;2228;48.140;11.488;2023-03-22T04:57:27;8.13;;;5.90;;
4430;SDS011;2228;48.140;11.488;2023-03-22T04:59:54;7.95;;;5.93;;
4430;SDS011;2228;48.140;11.488;2023-03-22T05:02:21;7.85;;;5.82;;
4430;SDS011;2228;48.140;11.488;2023-03-22T05:04:48;7.85;;;6.10;;
4430;SDS011;2228;48.140;11.488;2023-03-22T05:07:16;6.95;;;5.50;;
4430;SDS011;2228;48.140;11.488;2023-03-22T05:09:43;9.75;;;5.78;;
4430;SDS011;2228;48.140;11.488;2023-03-22T05:12:10;10.80;;;5.88;;
4430;SDS011;2228;48.140;11.488;2023-03-22T05:14:37;10.63;;;5.38;;
4430;SDS011;2228;48.140;11.488;2023-03-22T05:17:04;8.10;;;5.90;;
4430;SDS011;2228;48.140;11.488;2023-03-22T05:19:31;8.57;;;6.10;;
4430;SDS011;2228;48.140;11.488;2023-03-22T05:21:58;9.52;;;6.18;;
4430;SDS011;2228;48.140;11.488;2023-03-22T05:24:29;9.68;;;6.05;;
4430;SDS011;2228;48.140;11.488;2023-03-22T05:26:56;9.65;;;6.00;;
4430;SDS011;2228;48.140;11.488;2023-03-22T05:29:25;6.27;;;5.50;;
4430;SDS011;2228;48.140;11.488;2023-03-22T05:31:54;10.60;;;6.00;;
4430;SDS011;2228;48.140;11.488;2023-03-22T05:34:25;10.25;;;6.38;;
4430;SDS011;2228;48.140;11.488;2023-03-22T05:37:03;10.43;;;5.80;;
4430;SDS011;2228;48.140;11.488;2023-03-22T05:39:32;8.10;;;6.00;;
4430;SDS011;2228;48.140;11.488;2023-03-22T05:41:59;10.67;;;7.00;;
4430;SDS011;2228;48.140;11.488;2023-03-22T05:44:26;8.80;;;6.30;;
4430;SDS011;2228;48.140;11.488;2023-03-22T05:46:53;11.83;;;6.37;;
4430;SDS011;2228;48.140;11.488;2023-03-22T05:49:21;9.00;;;5.80;;
4430;SDS011;2228;48.140;11.488;2023-03-22T05:51:48;9.13;;;6.20;;
4430;SDS011;2228;48.140;11.488;2023-03-22T05:54:15;9.93;;;6.47;;
4430;SDS011;2228;48.140;11.488;2023-03-22T05:56:44;10.80;;;6.40;;
4430;SDS011;2228;48.140;11.488;2023-03-22T05:59:11;10.88;;;5.90;;
4430;SDS011;2228;48.140;11.488;2023-03-22T06:01:38;11.15;;;6.68;;
4430;SDS011;2228;48.140;11.488;2023-03-22T06:04:05;7.57;;;5.95;;
4430;SDS011;2228;48.140;11.488;2023-03-22T06:06:32;14.25;;;6.00;;
4430;SDS011;2228;48.140;11.488;2023-03-22T06:09:03;6.85;;;5.40;;
4430;SDS011;2228;48.140;11.488;2023-03-22T06:11:33;10.60;;;5.90;;
4430;SDS011;2228;48.140;11.488;2023-03-22T06:14:02;9.00;;;5.40;;
4430;SDS011;2228;48.140;11.488;2023-03-22T06:16:29;9.07;;;5.60;;
4430;SDS011;2228;48.140;11.488;2023-03-22T06:18:56;9.35;;;4.63;;
4430;SDS011;2228;48.140;11.488;2023-03-22T06:21:24;6.70;;;4.32;;
4430;SDS011;2228;48.140;11.488;2023-03-22T06:23:51;6.03;;;4.15;;
4430;SDS011;2228;48.140;11.488;2023-03-22T06:26:18;7.22;;;4.15;;
4430;SDS011;2228;48.140;11.488;2023-03-22T06:28:45;5.70;;;3.70;;
4430;SDS011;2228;48.140;11.488;2023-03-22T06:31:13;6.97;;;3.80;;
4430;SDS011;2228;48.140;11.488;2023-03-22T06:33:40;6.32;;;3.30;;
4430;SDS011;2228;48.140;11.488;2023-03-22T06:36:07;8.70;;;3.58;;
4430;SDS011;2228;48.140;11.488;2023-03-22T06:38:35;6.53;;;3.50;;
4430;SDS011;2228;48.140;11.488;2023-03-22T06:41:01;5.13;;;3.10;;
4430;SDS011;2228;48.140;11.488;2023-03-22T06:43:29;10.38;;;3.35;;
4430;SDS011;2228;48.140;11.488;2023-03-22T06:45:55;4.20;;;3.00;;
4430;SDS011;2228;48.140;11.488;2023-03-22T06:48:24;10.07;;;2.70;;
4430;SDS011;2228;48.140;11.488;2023-03-22T06:50:51;5.60;;;2.80;;
4430;SDS011;2228;48.140;11.488;2023-03-22T06:53:17;4.60;;;2.60;;
4430;SDS011;2228;48.140;11.488;2023-03-22T06:55:44;3.47;;;2.20;;
4430;SDS011;2228;48.140;11.488;2023-03-22T06:58:11;6.53;;;2.38;;
4430;SDS011;2228;48.140;11.488;2023-03-22T07:00:38;6.35;;;2.42;;
4430;SDS011;2228;48.140;11.488;2023-03-22T07:03:05;7.30;;;2.25;;
4430;SDS011;2228;48.140;11.488;2023-03-22T07:05:34;4.30;;;2.10;;
4430;SDS011;2228;48.140;11.488;2023-03-22T07:08:01;10.32;;;2.30;;
4430;SDS011;2228;48.140;11.488;2023-03-22T07:10:28;5.10;;;2.53;;
4430;SDS011;2228;48.140;11.488;2023-03-22T07:12:55;5.80;;;2.53;;
4430;SDS011;2228;48.140;11.488;2023-03-22T07:15:22;7.53;;;2.03;;
4430;SDS011;2228;48.140;11.488;2023-03-22T07:17:49;8.13;;;2.20;;
4430;SDS011;2228;48.140;11.488;2023-03-22T07:20:16;3.40;;;1.80;;
4430;SDS011;2228;48.140;11.488;2023-03-22T07:22:45;9.15;;;1.90;;
4430;SDS011;2228;48.140;11.488;2023-03-22T07:25:13;3.75;;;2.10;;
4430;SDS011;2228;48.140;11.488;2023-03-22T07:27:41;3.90;;;1.75;;
4430;SDS011;2228;48.140;11.488;2023-03-22T07:30:08;6.30;;;1.90;;
4430;SDS011;2228;48.140;11.488;2023-03-22T07:32:38;2.30;;;1.55;;
4430;SDS011;2228;48.140;11.488;2023-03-22T07:35:05;3.63;;;1.70;;
4430;SDS011;2228;48.140;11.488;2023-03-22T07:37:32;6.93;;;2.00;;
4430;SDS011;2228;48.140;11.488;2023-03-22T07:40:01;6.28;;;2.13;;
4430;SDS011;2228;48.140;11.488;2023-03-22T07:42:28;3.72;;;2.33;;
4430;SDS011;2228;48.140;11.488;2023-03-22T07:44:56;3.60;;;1.90;;
4430;SDS011;2228;48.140;11.488;2023-03-22T07:47:23;4.13;;;1.90;;
4430;SDS011;2228;48.140;11.488;2023-03-22T07:49:51;4.20;;;2.33;;
4430;SDS011;2228;48.140;11.488;2023-03-22T07:52:18;3.00;;;2.10;;
4430;SDS011;2228;48.140;11.488;2023-03-22T07:54:45;5.00;;;2.42;;
4430;SDS011;2228;48.140;11.488;2023-03-22T07:57:14;10.80;;;2.70;;
4430;SDS011;2228;48.140;11.488;2023-03-22T07:59:41;4.70;;;2.50;;
4430;SDS011;2228;48.140;11.488;2023-03-22T08:02:08;5.10;;;2.50;;
4430;SDS011;2228;48.140;11.488;2023-03-22T08:04:36;4.85;;;2.67;;
4430;SDS011;2228;48.140;11.488;2023-03-22T08:07:03;4.22;;;2.70;;
4430;SDS011;2228;48.140;11.488;2023-03-22T08:09:34;4.03;;;2.60;;
4430;SDS011;2228;48.140;11.488;2023-03-22T08:12:01;4.95;;;2.92;;
4430;SDS011;2228;48.140;11.488;2023-03-22T08:14:29;9.35;;;2.88;;
4430;SDS011;2228;48.140;11.488;2023-03-22T08:16:57;6.53;;;2.80;;
4430;SDS011;2228;48.140;11.488;2023-03-22T08:19:24;6.22;;;3.10;;
4430;SDS011;2228;48.140;11.488;2023-03-22T08:21:51;3.80;;;2.92;;
4430;SDS011;2228;48.140;11.488;2023-03-22T08:24:18;7.80;;;3.35;;
4430;SDS011;2228;48.140;11.488;2023-03-22T08:26:45;4.43;;;2.90;;
4430;SDS011;2228;48.140;11.488;2023-03-22T08:29:13;7.07;;;3.35;;
4430;SDS011;2228;48.140;11.488;2023-03-22T08:31:42;5.28;;;3.30;;
4430;SDS011;2228;48.140;11.488;2023-03-22T08:34:09;6.72;;;3.50;;
4430;SDS011;2228;48.140;11.488;2023-03-22T08:36:36;8.77;;;3.72;;
4430;SDS011;2228;48.140;11.488;2023-03-22T08:39:03;5.60;;;3.80;;
4430;SDS011;2228;48.140;11.488;2023-03-22T08:41:30;6.40;;;3.90;;
4430;SDS011;2228;48.140;11.488;2023-03-22T08:43:57;7.03;;;3.93;;
4430;SDS011;2228;48.140;11.488;2023-03-22T08:46:24;8.18;;;4.40;;
4430;SDS011;2228;48.140;11.488;2023-03-22T08:48:52;4.93;;;3.60;;
4430;SDS011;2228;48.140;11.488;2023-03-22T08:51:21;8.02;;;4.22;;
4430;SDS011;2228;48.140;11.488;2023-03-22T08:53:49;8.65;;;3.92;;
4430;SDS011;2228;48.140;11.488;2023-03-22T08:56:16;3.97;;;3.15;;
4430;SDS011;2228;48.140;11.488;2023-03-22T08:58:44;3.92;;;2.97;;
4430;SDS011;2228;48.140;11.488;2023-03-22T09:01:11;4.40;;;3.30;;
4430;SDS011;2228;48.140;11.488;2023-03-22T09:03:39;5.20;;;3.25;;
4430;SDS011;2228;48.140;11.488;2023-03-22T09:06:08;6.00;;;3.00;;
4430;SDS011;2228;48.140;11.488;2023-03-22T09:08:36;3.80;;;2.83;;
4430;SDS011;2228;48.140;11.488;2023-03-22T09:11:03;8.32;;;3.05;;
4430;SDS011;2228;48.140;11.488;2023-03-22T09:13:33;4.35;;;2.42;;
4430;SDS011;2228;48.140;11.488;2023-03-22T09:16:00;3.00;;;2.70;;
4430;SDS011;2228;48.140;11.488;2023-03-22T09:18:28;3.42;;;3.10;;
4430;SDS011;2228;48.140;11.488;2023-03-22T09:20:55;4.18;;;2.67;;
4430;SDS011;2228;48.140;11.488;2023-03-22T09:23:23;3.33;;;2.60;;
4430;SDS011;2228;48.140;11.488;2023-03-22T09:25:50;4.30;;;3.20;;
4430;SDS011;2228;48.140;11.488;2023-03-22T09:28:17;3.95;;;2.47;;
4430;SDS011;2228;48.140;11.488;2023-03-22T09:30:44;3.30;;;2.60;;
4430;SDS011;2228;48.140;11.488;2023-03-22T09:33:11;3.03;;;2.60;;
4430;SDS011;2228;48.140;11.488;2023-03-22T09:35:41;4.07;;;2.50;;
4430;SDS011;2228;48.140;11.488;2023-03-22T09:38:08;7.10;;;2.70;;
4430;SDS011;2228;48.140;11.488;2023-03-22T09:40:38;4.40;;;2.50;;
4430;SDS011;2228;48.140;11.488;2023-03-22T09:43:13;3.75;;;2.85;;
4430;SDS011;2228;48.140;11.488;2023-03-22T09:45:42;5.13;;;3.17;;
4430;SDS011;2228;48.140;11.488;2023-03-22T09:48:12;4.07;;;3.00;;
4430;SDS011;2228;48.140;11.488;2023-03-22T09:50:44;5.13;;;2.97;;
4430;SDS011;2228;48.140;11.488;2023-03-22T09:53:13;5.55;;;2.80;;
4430;SDS011;2228;48.140;11.488;2023-03-22T09:55:45;5.35;;;2.85;;
4430;SDS011;2228;48.140;11.488;2023-03-22T09:58:19;3.85;;;3.28;;
4430;SDS011;2228;48.140;11.488;2023-03-22T10:00:51;5.60;;;2.53;;
4430;SDS011;2228;48.140;11.488;2023-03-22T10:03:26;5.50;;;2.83;;
4430;SDS011;2228;48.140;11.488;2023-03-22T10:06:04;4.20;;;2.60;;
4430;SDS011;2228;48.140;11.488;2023-03-22T10:08:39;4.60;;;2.80;;
4430;SDS011;2228;48.140;11.488;2023-03-22T10:11:19;9.55;;;2.80;;
4430;SDS011;2228;48.140;11.488;2023-03-22T10:13:56;3.22;;;2.30;;
4430;SDS011;2228;48.140;11.488;2023-03-22T10:16:28;11.30;;;3.10;;
4430;SDS011;2228;48.140;11.488;2023-03-22T10:19:01;5.22;;;2.17;;
4430;SDS011;2228;48.140;11.488;2023-03-22T10:21:32;4.50;;;2.40;;
4430;SDS011;2228;48.140;11.488;2023-03-22T10:24:02;3.60;;;2.20;;
4430;SDS011;2228;48.140;11.488;2023-03-22T10:26:37;3.13;;;2.13;;
4430;SDS011;2228;48.140;11.488;2023-03-22T10:29:08;5.43;;;1.90;;
4430;SDS011;2228;48.140;11.488;2023-03-22T10:31:38;3.45;;;2.38;;
4430;SDS011;2228;48.140;11.488;2023-03-22T10:34:11;7.95;;;2.33;;
4430;SDS011;2228;48.140;11.488;2023-03-22T10:36:45;4.53;;;2.50;;
4430;SDS011;2228;48.140;11.488;2023-03-22T10:39:17;4.50;;;2.10;;
4430;SDS011;2228;48.140;11.488;2023-03-22T10:41:54;2.78;;;2.00;;
4430;SDS011;2228;48.140;11.488;2023-03-22T10:44:23;2.60;;;1.90;;
4430;SDS011;2228;48.140;11.488;2023-03-22T10:46:53;3.10;;;2.00;;
4430;SDS011;2228;48.140;11.488;2023-03-22T10:49:24;4.95;;;2.25;;
4430;SDS011;2228;48.140;11.488;2023-03-22T10:51:56;3.65;;;1.70;;
4430;SDS011;2228;48.140;11.488;2023-03-22T10:54:28;5.15;;;2.35;;
4430;SDS011;2228;48.140;11.488;2023-03-22T10:57:12;4.07;;;2.20;;
4430;SDS011;2228;48.140;11.488;2023-03-22T10:59:44;4.68;;;2.00;;
4430;SDS011;2228;48.140;11.488;2023-03-22T11:02:16;2.40;;;1.83;;
4430;SDS011;2228;48.140;11.488;2023-03-22T11:05:00;3.80;;;1.92;;
4430;SDS011;2228;48.140;11.488;2023-03-22T11:07:36;3.00;;;2.10;;
4430;SDS011;2228;48.140;11.488;2023-03-22T11:10:20;3.63;;;1.83;;
4430;SDS011;2228;48.140;11.488;2023-03-22T11:12:54;3.10;;;1.80;;
4430;SDS011;2228;48.140;11.488;2023-03-22T11:15:39;4.03;;;1.80;;
4430;SDS011;2228;48.140;11.488;2023-03-22T11:18:15;3.30;;;1.75;;
4430;SDS011;2228;48.140;11.488;2023-03-22T11:20:51;3.40;;;2.20;;
4430;SDS011;2228;48.140;11.488;2023-03-22T11:23:23;3.80;;;1.60;;
4430;SDS011;2228;48.140;11.488;2023-03-22T11:25:54;1.98;;;1.77;;
4430;SDS011;2228;48.140;11.488;2023-03-22T11:28:32;3.45;;;1.67;;
4430;SDS011;2228;48.140;11.488;2023-03-22T11:31:05;2.50;;;1.70;;
4430;SDS011;2228;48.140;11.488;2023-03-22T11:33:36;3.08;;;1.70;;
4430;SDS011;2228;48.140;11.488;2023-03-22T11:36:14;3.10;;;2.10;;
4430;SDS011;2228;48.140;11.488;2023-03-22T11:38:56;3.50;;;1.90;;
4430;SDS011;2228;48.140;11.488;2023-03-22T11:41:36;3.80;;;2.58;;
4430;SDS011;2228;48.140;11.488;2023-03-22T11:44:20;5.95;;;1.98;;
4430;SDS011;2228;48.140;11.488;2023-03-22T11:46:48;2.83;;;1.90;;
4430;SDS011;2228;48.140;11.488;2023-03-22T11:49:20;3.92;;;2.10;;
4430;SDS011;2228;48.140;11.488;2023-03-22T11:51:51;2.90;;;2.08;;
4430;SDS011;2228;48.140;11.488;2023-03-22T11:54:23;4.32;;;2.00;;
4430;SDS011;2228;48.140;11.488;2023-03-22T11:56:55;2.53;;;2.20;;
4430;SDS011;2228;48.140;11.488;2023-03-22T11:59:28;6.85;;;1.85;;
4430;SDS011;2228;48.140;11.488;2023-03-22T12:01:57;3.55;;;2.20;;
4430;SDS011;2228;48.140;11.488;2023-03-22T12:04:30;2.90;;;2.00;;
4430;SDS011;2228;48.140;11.488;2023-03-22T12:07:03;4.03;;;1.70;;
4430;SDS011;2228;48.140;11.488;2023-03-22T12:09:37;5.07;;;2.10;;
4430;SDS011;2228;48.140;11.488;2023-03-22T12:12:09;3.30;;;1.70;;
4430;SDS011;2228;48.140;11.488;2023-03-22T12:14:44;3.67;;;2.30;;
4430;SDS011;2228;48.140;11.488;2023-03-22T12:17:17;4.57;;;2.30;;
4430;SDS011;2228;48.140;11.488;2023-03-22T12:19:51;4.13;;;1.90;;
4430;SDS011;2228;48.140;11.488;2023-03-22T12:22:24;2.50;;;1.90;;
4430;SDS011;2228;48.140;11.488;2023-03-22T12:24:56;2.85;;;2.00;;
4430;SDS011;2228;48.140;11.488;2023-03-22T12:27:24;6.60;;;2.30;;
4430;SDS011;2228;48.140;11.488;2023-03-22T12:29:58;2.20;;;2.00;;
4430;SDS011;2228;48.140;11.488;2023-03-22T12:32:33;2.95;;;1.88;;
4430;SDS011;2228;48.140;11.488;2023-03-22T12:35:03;2.50;;;2.00;;
4430;SDS011;2228;48.140;11.488;2023-03-22T12:37:33;4.15;;;2.25;;
4430;SDS011;2228;48.140;11.488;2023-03-22T12:40:03;2.63;;;1.80;;
4430;SDS011;2228;48.140;11.488;2023-03-22T12:42:35;3.08;;;1.80;;
4430;SDS011;2228;48.140;11.488;2023-03-22T12:45:09;4.85;;;1.80;;
4430;SDS011;2228;48.140;11.488;2023-03-22T12:47:41;2.58;;;1.98;;
4430;SDS011;2228;48.140;11.488;2023-03-22T12:50:12;2.78;;;2.20;;
4430;SDS011;2228;48.140;11.488;2023-03-22T12:52:43;2.40;;;2.20;;
4430;SDS011;2228;48.140;11.488;2023-03-22T12:55:17;5.75;;;2.03;;
4430;SDS011;2228;48.140;11.488;2023-03-22T12:57:49;3.38;;;1.77;;
4430;SDS011;2228;48.140;11.488;2023-03-22T13:00:20;2.30;;;1.50;;
4430;SDS011;2228;48.140;11.488;2023-03-22T13:02:54;2.10;;;1.70;;
4430;SDS011;2228;48.140;11.488;2023-03-22T13:05:27;4.47;;;1.77;;
4430;SDS011;2228;48.140;11.488;2023-03-22T13:07:55;4.40;;;2.10;;
4430;SDS011;2228;48.140;11.488;2023-03-22T13:10:38;2.93;;;1.80;;
4430;SDS011;2228;48.140;11.488;2023-03-22T13:13:40;2.50;;;1.33;;
4430;SDS011;2228;48.140;11.488;2023-03-22T13:16:17;2.17;;;1.40;;
4430;SDS011;2228;48.140;11.488;2023-03-22T13:18:56;3.22;;;1.40;;
4430;SDS011;2228;48.140;11.488;2023-03-22T13:21:25;3.67;;;1.17;;
4430;SDS011;2228;48.140;11.488;2023-03-22T13:23:55;2.90;;;1.20;;
4430;SDS011;2228;48.140;11.488;2023-03-22T13:26:26;2.45;;;1.40;;
4430;SDS011;2228;48.140;11.488;2023-03-22T13:29:05;1.30;;;1.02;;
4430;SDS011;2228;48.140;11.488;2023-03-22T13:31:39;1.58;;;1.00;;
4430;SDS011;2228;48.140;11.488;2023-03-22T13:34:16;5.13;;;1.30;;
4430;SDS011;2228;48.140;11.488;2023-03-22T13:36:47;3.53;;;1.20;;
4430;SDS011;2228;48.140;11.488;2023-03-22T13:39:16;2.20;;;1.20;;
4430;SDS011;2228;48.140;11.488;2023-03-22T13:41:47;3.42;;;1.30;;
4430;SDS011;2228;48.140;11.488;2023-03-22T13:44:27;1.20;;;1.10;;
4430;SDS011;2228;48.140;11.488;2023-03-22T13:46:57;2.03;;;1.40;;
4430;SDS011;2228;48.140;11.488;2023-03-22T13:49:33;1.80;;;1.03;;
4430;SDS011;2228;48.140;11.488;2023-03-22T13:55:02;1.40;;;1.13;;
4430;SDS011;2228;48.140;11.488;2023-03-22T13:57:47;2.50;;;1.13;;
4430;SDS011;2228;48.140;11.488;2023-03-22T14:00:33;1.80;;;1.10;;
4430;SDS011;2228;48.140;11.488;2023-03-22T14:03:19;1.50;;;1.20;;
4430;SDS011;2228;48.140;11.488;2023-03-22T14:05:53;1.70;;;1.10;;
4430;SDS011;2228;48.140;11.488;2023-03-22T14:08:29;1.25;;;1.00;;
4430;SDS011;2228;48.140;11.488;2023-03-22T14:11:01;1.90;;;0.90;;
4430;SDS011;2228;48.140;11.488;2023-03-22T14:13:45;1.38;;;1.00;;
4430;SDS011;2228;48.140;11.488;2023-03-22T14:16:16;4.23;;;1.10;;
4430;SDS011;2228;48.140;11.488;2023-03-22T14:18:48;1.52;;;1.00;;
4430;SDS011;2228;48.140;11.488;2023-03-22T14:21:16;2.47;;;0.80;;
4430;SDS011;2228;48.140;11.488;2023-03-22T14:23:47;2.00;;;0.80;;
4430;SDS011;2228;48.140;11.488;2023-03-22T14:26:17;3.20;;;1.00;;
4430;SDS011;2228;48.140;11.488;2023-03-22T14:28:47;1.27;;;0.93;;
4430;SDS011;2228;48.140;11.488;2023-03-22T14:31:16;1.27;;;0.88;;
4430;SDS011;2228;48.140;11.488;2023-03-22T14:33:48;1.95;;;0.90;;
4430;SDS011;2228;48.140;11.488;2023-03-22T14:36:16;1.80;;;1.10;;
4430;SDS011;2228;48.140;11.488;2023-03-22T14:38:45;2.03;;;1.10;;
4430;SDS011;2228;48.140;11.488;2023-03-22T14:41:14;1.30;;;0.98;;
4430;SDS011;2228;48.140;11.488;2023-03-22T14:43:44;2.45;;;0.80;;
4430;SDS011;2228;48.140;11.488;2023-03-22T14:46:13;2.90;;;1.10;;
4430;SDS011;2228;48.140;11.488;2023-03-22T14:48:46;1.52;;;1.15;;
4430;SDS011;2228;48.140;11.488;2023-03-22T14:51:17;2.70;;;1.10;;
4430;SDS011;2228;48.140;11.488;2023-03-22T14:53:49;1.38;;;0.90;;
4430;SDS011;2228;48.140;11.488;2023-03-22T14:56:18;2.30;;;1.10;;
4430;SDS011;2228;48.140;11.488;2023-03-22T14:58:48;1.33;;;1.10;;
4430;SDS011;2228;48.140;11.488;2023-03-22T15:01:20;1.43;;;1.10;;
4430;SDS011;2228;48.140;11.488;2023-03-22T15:03:54;4.85;;;1.40;;
4430;SDS011;2228;48.140;11.488;2023-03-22T15:06:24;4.30;;;1.38;;
4430;SDS011;2228;48.140;11.488;2023-03-22T15:08:52;2.25;;;0.93;;
4430;SDS011;2228;48.140;11.488;2023-03-22T15:11:20;1.33;;;0.95;;
4430;SDS011;2228;48.140;11.488;2023-03-22T15:13:48;1.80;;;1.10;;
4430;SDS011;2228;48.140;11.488;2023-03-22T15:16:18;2.30;;;0.93;;
4430;SDS011;2228;48.140;11.488;2023-03-22T15:18:48;1.23;;;0.82;;
4430;SDS011;2228;48.140;11.488;2023-03-22T15:21:18;1.10;;;0.90;;
4430;SDS011;2228;48.140;11.488;2023-03-22T15:23:46;1.90;;;0.93;;
4430;SDS011;2228;48.140;11.488;2023-03-22T15:26:16;1.65;;;1.10;;
4430;SDS011;2228;48.140;11.488;2023-03-22T15:28:49;1.50;;;1.00;;
4430;SDS011;2228;48.140;11.488;2023-03-22T15:31:23;2.92;;;1.15;;
4430;SDS011;2228;48.140;11.488;2023-03-22T15:33:56;1.50;;;1.00;;